createdAt,value
2023-04-07T00:01:32.482Z,98593.34
2023-04-07T00:04:35.161Z,98593.56
2023-04-07T00:07:48.536Z,98600.50
2023-04-07T00:10:59.559Z,98587.41
2023-04-07T00:14:02.138Z,98590.13
2023-04-07T00:17:07.385Z,98588.50
2023-04-07T00:20:10.322Z,98583.00
2023-04-07T00:23:12.795Z,98577.88
2023-04-07T00:26:16.743Z,98573.81
2023-04-07T00:29:19.260Z,98577.03
2023-04-07T00:32:22.088Z,98558.31
2023-04-07T00:35:24.897Z,98562.75
2023-04-07T00:38:27.652Z,98552.66
2023-04-07T00:41:31.593Z,98555.28
2023-04-07T00:44:34.291Z,98554.69
2023-04-07T00:47:37.172Z,98549.78
2023-04-07T00:50:39.794Z,98552.06
2023-04-07T00:53:42.810Z,98533.56
2023-04-07T00:56:46.867Z,98540.59
2023-04-07T00:59:49.465Z,98530.75
2023-04-07T01:02:58.138Z,98532.84
2023-04-07T01:06:02.370Z,98523.69
2023-04-07T01:09:07.149Z,98521.47
2023-04-07T01:12:19.247Z,98518.28
2023-04-07T01:15:24.197Z,98512.22
2023-04-07T01:18:30.733Z,98513.13
2023-04-07T01:21:34.900Z,98510.59
2023-04-07T01:24:55.972Z,98509.31
2023-04-07T01:28:15.874Z,98505.16
2023-04-07T01:31:19.947Z,98497.31
2023-04-07T01:34:23.461Z,98496.66
2023-04-07T01:37:27.881Z,98498.97
2023-04-07T01:40:30.776Z,98493.31
2023-04-07T01:43:33.524Z,98494.41
2023-04-07T01:46:37.498Z,98493.97
2023-04-07T01:49:41.973Z,98485.94
2023-04-07T01:52:44.720Z,98484.00
2023-04-07T01:55:47.262Z,98479.59
2023-04-07T01:58:49.844Z,98474.16
2023-04-07T02:01:53.874Z,98480.59
2023-04-07T02:04:57.723Z,98472.81
2023-04-07T02:08:00.941Z,98478.44
2023-04-07T02:11:04.730Z,98480.53
2023-04-07T02:14:08.245Z,98470.06
2023-04-07T02:17:13.097Z,98472.63
2023-04-07T02:20:17.018Z,98467.66
2023-04-07T02:23:19.586Z,98466.22
2023-04-07T02:26:22.439Z,98464.41
2023-04-07T02:29:24.992Z,98456.59
2023-04-07T02:32:28.905Z,98453.09
2023-04-07T02:35:31.461Z,98451.97
2023-04-07T02:38:34.319Z,98452.59
2023-04-07T02:41:36.969Z,98447.28
2023-04-07T02:44:39.555Z,98446.97
2023-04-07T02:47:43.538Z,98440.72
2023-04-07T02:50:46.241Z,98442.84
2023-04-07T02:53:48.854Z,98444.44
2023-04-07T02:56:51.596Z,98448.28
2023-04-07T02:59:55.166Z,98434.38
2023-04-07T03:02:59.285Z,98440.13
2023-04-07T03:06:01.983Z,98430.75
2023-04-07T03:09:04.721Z,98430.84
2023-04-07T03:12:07.492Z,98433.25
2023-04-07T03:15:10.707Z,98425.88
2023-04-07T03:18:14.662Z,98423.66
2023-04-07T03:21:17.218Z,98426.53
2023-04-07T03:24:19.988Z,98423.97
2023-04-07T03:27:22.651Z,98416.72
2023-04-07T03:30:26.387Z,98422.38
2023-04-07T03:33:30.321Z,98414.81
2023-04-07T03:36:33.016Z,98417.03
2023-04-07T03:39:37.302Z,98414.53
2023-04-07T03:42:39.978Z,98411.16
2023-04-07T03:45:42.743Z,98411.03
2023-04-07T03:48:46.632Z,98410.25
2023-04-07T03:51:49.194Z,98411.97
2023-04-07T03:54:51.786Z,98406.53
2023-04-07T03:57:54.387Z,98396.97
2023-04-07T04:00:56.961Z,98396.19
2023-04-07T04:04:00.972Z,98402.63
2023-04-07T04:07:03.720Z,98399.91
2023-04-07T04:10:07.542Z,98398.94
2023-04-07T04:13:10.059Z,98399.41
2023-04-07T04:16:15.102Z,98394.16
2023-04-07T04:19:19.156Z,98392.34
2023-04-07T04:22:21.882Z,98396.00
2023-04-07T04:25:25.067Z,98397.75
2023-04-07T04:28:27.828Z,98390.28
2023-04-07T04:31:30.531Z,98387.53
2023-04-07T04:34:34.504Z,98383.28
2023-04-07T04:37:37.022Z,98395.09
2023-04-07T04:40:39.613Z,98386.94
2023-04-07T04:43:42.610Z,98387.41
2023-04-07T04:46:45.324Z,98383.69
2023-04-07T04:49:49.189Z,98386.94
2023-04-07T04:52:51.788Z,98392.16
2023-04-07T04:55:54.442Z,98388.47
2023-04-07T04:58:57.037Z,98389.28
2023-04-07T05:01:59.751Z,98389.44
2023-04-07T05:05:03.953Z,98389.97
2023-04-07T05:08:07.360Z,98385.81
2023-04-07T05:11:09.929Z,98386.28
2023-04-07T05:14:12.561Z,98397.69
2023-04-07T05:17:15.153Z,98396.56
2023-04-07T05:20:19.144Z,98393.03
2023-04-07T05:23:21.941Z,98393.53
2023-04-07T05:26:24.434Z,98397.75
2023-04-07T05:29:26.901Z,98399.31
2023-04-07T05:32:29.738Z,98403.69
2023-04-07T05:35:33.689Z,98398.66
2023-04-07T05:38:36.310Z,98404.47
2023-04-07T05:41:38.983Z,98398.28
2023-04-07T05:44:41.644Z,98401.94
2023-04-07T05:47:44.323Z,98398.97
2023-04-07T05:50:48.384Z,98400.78
2023-04-07T05:53:51.044Z,98396.44
2023-04-07T05:56:53.634Z,98396.00
2023-04-07T05:59:56.496Z,98403.09
2023-04-07T06:02:59.301Z,98401.38
2023-04-07T06:06:03.360Z,98409.69
2023-04-07T06:09:07.004Z,98404.88
2023-04-07T06:12:12.245Z,98404.41
2023-04-07T06:15:14.941Z,98403.97
2023-04-07T06:18:17.650Z,98404.13
2023-04-07T06:21:21.664Z,98417.13
2023-04-07T06:24:25.260Z,98410.72
2023-04-07T06:27:27.865Z,98416.53
2023-04-07T06:30:30.684Z,98405.78
2023-04-07T06:33:33.241Z,98409.94
2023-04-07T06:36:37.597Z,98409.47
2023-04-07T06:39:40.401Z,98418.13
2023-04-07T06:42:42.985Z,98411.88
2023-04-07T06:45:45.602Z,98418.28
2023-04-07T06:48:48.204Z,98403.81
2023-04-07T06:51:52.249Z,98404.69
2023-04-07T06:54:54.998Z,98406.63
2023-04-07T06:57:57.601Z,98407.03
2023-04-07T07:01:00.997Z,98399.28
2023-04-07T07:04:03.666Z,98407.50
2023-04-07T07:07:07.795Z,98398.16
2023-04-07T07:10:11.477Z,98399.31
2023-04-07T07:13:13.891Z,98399.22
2023-04-07T07:16:16.444Z,98394.72
2023-04-07T07:19:19.025Z,98398.66
2023-04-07T07:22:23.092Z,98397.50
2023-04-07T07:25:26.823Z,98393.66
2023-04-07T07:28:29.895Z,98406.06
2023-04-07T07:31:32.581Z,98400.78
2023-04-07T07:34:35.345Z,98401.56
2023-04-07T07:37:39.200Z,98407.59
2023-04-07T07:40:41.790Z,98407.94
2023-04-07T07:43:44.400Z,98417.06
2023-04-07T07:46:47.004Z,98404.59
2023-04-07T07:49:49.779Z,98416.78
2023-04-07T07:52:54.406Z,98412.16
2023-04-07T07:55:56.971Z,98413.84
2023-04-07T07:58:59.973Z,98415.19
2023-04-07T08:02:02.612Z,98410.31
2023-04-07T08:05:05.995Z,98412.50
2023-04-07T08:08:09.989Z,98412.47
2023-04-07T08:11:12.617Z,98418.97
2023-04-07T08:14:15.357Z,98413.19
2023-04-07T08:17:18.095Z,98424.56
2023-04-07T08:20:24.030Z,98420.66
2023-04-07T08:23:34.507Z,98421.66
2023-04-07T08:26:44.550Z,98427.25
2023-04-07T08:29:47.095Z,98432.53
2023-04-07T08:32:50.393Z,98425.13
2023-04-07T08:35:53.029Z,98430.41
2023-04-07T08:38:56.940Z,98425.78
2023-04-07T08:41:59.480Z,98431.97
2023-04-07T08:45:04.307Z,98424.16
2023-04-07T08:48:11.920Z,98424.84
2023-04-07T08:51:15.209Z,98432.19
2023-04-07T08:54:21.661Z,98424.53
2023-04-07T08:57:24.391Z,98429.47
2023-04-07T09:00:27.438Z,98431.63
2023-04-07T09:03:31.126Z,98429.47
2023-04-07T09:06:34.046Z,98428.78
2023-04-07T09:09:38.085Z,98440.94
2023-04-07T09:12:41.141Z,98437.75
2023-04-07T09:15:43.686Z,98433.00
2023-04-07T09:18:46.284Z,98433.94
2023-04-07T09:21:50.554Z,98429.91
2023-04-07T09:24:54.527Z,98433.34
2023-04-07T09:27:58.177Z,98439.63
2023-04-07T09:31:00.903Z,98429.50
2023-04-07T09:34:04.386Z,98433.63
2023-04-07T09:37:09.456Z,98428.16
2023-04-07T09:40:13.444Z,98429.34
2023-04-07T09:43:17.609Z,98432.88
2023-04-07T09:46:20.932Z,98433.38
2023-04-07T09:49:24.373Z,98435.44
2023-04-07T09:52:31.132Z,98430.84
2023-04-07T09:55:35.265Z,98435.47
2023-04-07T09:58:39.296Z,98437.91
2023-04-07T10:01:46.623Z,98439.66
2023-04-07T10:04:51.892Z,98428.63
2023-04-07T10:07:54.679Z,98436.44
2023-04-07T10:10:58.757Z,98428.72
2023-04-07T10:14:01.637Z,98433.72
2023-04-07T10:17:05.334Z,98424.88
2023-04-07T10:20:09.579Z,98427.50
2023-04-07T10:23:17.853Z,98429.53
2023-04-07T10:26:25.458Z,98426.97
2023-04-07T10:29:30.204Z,98429.53
2023-04-07T10:32:32.834Z,98428.53
2023-04-07T10:36:06.549Z,98431.66
2023-04-07T10:39:22.301Z,98434.19
2023-04-07T10:42:50.793Z,98433.53
2023-04-07T10:45:59.512Z,98433.88
2023-04-07T10:49:09.786Z,98428.56
2023-04-07T10:52:24.014Z,98427.03
2023-04-07T10:55:31.772Z,98428.19
2023-04-07T10:58:36.056Z,98438.50
2023-04-07T11:01:38.674Z,98427.44
2023-04-07T11:04:42.705Z,98427.75
2023-04-07T11:07:54.988Z,98425.69
2023-04-07T11:10:57.488Z,98433.06
2023-04-07T11:14:28.097Z,98431.25
2023-04-07T11:17:30.857Z,98429.19
2023-04-07T11:20:46.148Z,98425.97
2023-04-07T11:23:49.360Z,98430.53
2023-04-07T11:26:52.525Z,98429.94
2023-04-07T11:29:57.660Z,98430.13
2023-04-07T11:33:00.298Z,98418.28
2023-04-07T11:36:03.887Z,98432.81
2023-04-07T11:39:06.819Z,98428.41
2023-04-07T11:42:09.421Z,98435.06
2023-04-07T11:45:19.593Z,98436.25
2023-04-07T11:48:30.966Z,98443.84
2023-04-07T11:51:33.516Z,98445.75
2023-04-07T11:54:43.092Z,98448.13
2023-04-07T11:57:45.794Z,98449.50
2023-04-07T12:01:03.551Z,98453.00
2023-04-07T12:04:06.503Z,98457.00
2023-04-07T12:07:10.437Z,98450.19
2023-04-07T12:10:20.104Z,98461.00
2023-04-07T12:13:22.708Z,98461.56
2023-04-07T12:16:26.880Z,98472.16
2023-04-07T12:19:30.369Z,98474.94
2023-04-07T12:22:33.223Z,98476.06
2023-04-07T12:25:36.341Z,98473.97
2023-04-07T12:28:38.887Z,98474.28
2023-04-07T12:31:43.661Z,98474.47
2023-04-07T12:34:47.836Z,98478.81
2023-04-07T12:37:51.891Z,98482.91
2023-04-07T12:40:54.433Z,98488.16
2023-04-07T12:43:57.041Z,98479.47
2023-04-07T12:47:01.687Z,98479.41
2023-04-07T12:50:04.818Z,98480.53
2023-04-07T12:53:07.427Z,98480.09
2023-04-07T12:56:10.046Z,98473.78
2023-04-07T12:59:12.982Z,98476.47
2023-04-07T13:02:19.127Z,98470.94
2023-04-07T13:05:22.176Z,98467.69
2023-04-07T13:08:24.879Z,98470.88
2023-04-07T13:11:27.672Z,98466.59
2023-04-07T13:14:30.251Z,98465.69
2023-04-07T13:17:36.395Z,98460.72
2023-04-07T13:20:38.975Z,98473.59
2023-04-07T13:23:43.892Z,98479.34
2023-04-07T13:26:46.905Z,98465.06
2023-04-07T13:29:49.450Z,98473.97
2023-04-07T13:32:53.316Z,98472.56
2023-04-07T13:35:55.945Z,98478.44
2023-04-07T13:38:58.690Z,98469.56
2023-04-07T13:42:01.876Z,98476.44
2023-04-07T13:45:04.956Z,98474.75
2023-04-07T13:48:08.842Z,98469.59
2023-04-07T13:51:11.525Z,98467.72
2023-04-07T13:54:13.990Z,98459.66
2023-04-07T13:57:21.014Z,98466.50
2023-04-07T14:00:23.772Z,98468.00
2023-04-07T14:03:28.236Z,98458.78
2023-04-07T14:06:31.583Z,98460.22
2023-04-07T14:09:34.191Z,98463.53
2023-04-07T14:12:37.051Z,98457.97
2023-04-07T14:15:39.774Z,98461.09
2023-04-07T14:18:43.686Z,98460.78
2023-04-07T14:21:46.317Z,98459.97
2023-04-07T14:24:48.822Z,98459.63
2023-04-07T14:27:52.316Z,98457.13
2023-04-07T14:30:55.046Z,98460.88
2023-04-07T14:33:58.921Z,98457.47
2023-04-07T14:37:01.704Z,98458.19
2023-04-07T14:40:05.034Z,98458.03
2023-04-07T14:43:07.959Z,98462.25
2023-04-07T14:46:12.288Z,98464.22
2023-04-07T14:49:16.589Z,98463.69
2023-04-07T14:52:20.507Z,98460.47
2023-04-07T14:55:23.557Z,98462.28
2023-04-07T14:58:26.120Z,98458.34
2023-04-07T15:01:28.906Z,98463.72
2023-04-07T15:04:33.179Z,98463.53
2023-04-07T15:07:36.337Z,98473.31
2023-04-07T15:10:39.213Z,98468.38
2023-04-07T15:13:41.758Z,98468.47
2023-04-07T15:16:44.255Z,98470.50
2023-04-07T15:19:48.202Z,98473.28
2023-04-07T15:22:51.123Z,98473.50
2023-04-07T15:25:56.109Z,98472.44
2023-04-07T15:28:58.674Z,98477.22
2023-04-07T15:32:01.911Z,98479.72
2023-04-07T15:35:06.705Z,98477.41
2023-04-07T15:38:09.246Z,98469.31
2023-04-07T15:41:15.421Z,98482.97
2023-04-07T15:44:18.914Z,98476.69
2023-04-07T15:47:21.328Z,98484.06
2023-04-07T15:50:25.501Z,98485.53
2023-04-07T15:53:28.156Z,98486.47
2023-04-07T15:56:30.842Z,98488.84
2023-04-07T15:59:34.243Z,98488.84
2023-04-07T16:02:36.993Z,98487.81
2023-04-07T16:05:40.995Z,98499.13
2023-04-07T16:08:43.815Z,98491.88
2023-04-07T16:11:46.358Z,98502.56
2023-04-07T16:14:50.276Z,98492.34
2023-04-07T16:17:52.920Z,98498.94
2023-04-07T16:20:56.898Z,98487.63
2023-04-07T16:23:59.411Z,98496.09
2023-04-07T16:27:04.178Z,98500.88
2023-04-07T16:30:08.270Z,98505.31
2023-04-07T16:33:11.014Z,98513.38
2023-04-07T16:36:15.328Z,98507.69
2023-04-07T16:39:18.565Z,98517.31
2023-04-07T16:42:21.524Z,98512.53
2023-04-07T16:45:24.108Z,98518.81
2023-04-07T16:48:27.063Z,98517.78
2023-04-07T16:51:31.815Z,98525.69
2023-04-07T16:54:35.333Z,98528.66
2023-04-07T16:57:37.838Z,98531.28
2023-04-07T17:00:40.446Z,98529.22
2023-04-07T17:03:43.298Z,98535.06
2023-04-07T17:06:47.383Z,98533.81
2023-04-07T17:09:50.134Z,98529.31
2023-04-07T17:12:56.058Z,98537.47
2023-04-07T17:15:58.795Z,98540.06
2023-04-07T17:19:01.779Z,98548.16
2023-04-07T17:22:06.001Z,98545.56
2023-04-07T17:25:09.620Z,98548.00
2023-04-07T17:28:12.021Z,98551.84
2023-04-07T17:31:14.678Z,98557.94
2023-04-07T17:34:17.405Z,98562.88
2023-04-07T17:37:21.558Z,98567.41
2023-04-07T17:40:24.460Z,98573.69
2023-04-07T17:43:27.088Z,98577.91
2023-04-07T17:46:29.889Z,98576.56
2023-04-07T17:49:32.526Z,98574.47
2023-04-07T17:52:36.443Z,98590.00
2023-04-07T17:55:39.134Z,98599.63
2023-04-07T17:58:41.810Z,98599.97
2023-04-07T18:01:44.460Z,98606.97
2023-04-07T18:04:47.092Z,98616.16
2023-04-07T18:07:51.086Z,98616.28
2023-04-07T18:10:53.625Z,98613.72
2023-04-07T18:13:56.470Z,98622.41
2023-04-07T18:16:59.142Z,98636.44
2023-04-07T18:20:02.135Z,98635.97
2023-04-07T18:23:06.195Z,98638.53
2023-04-07T18:26:08.811Z,98644.53
2023-04-07T18:29:12.323Z,98641.16
2023-04-07T18:32:14.868Z,98652.22
2023-04-07T18:35:17.396Z,98656.88
2023-04-07T18:38:21.355Z,98667.81
2023-04-07T18:41:23.918Z,98671.31
2023-04-07T18:44:28.445Z,98668.94
2023-04-07T18:47:30.967Z,98685.00
2023-04-07T18:50:33.553Z,98686.94
2023-04-07T18:53:37.603Z,98694.78
2023-04-07T18:56:40.210Z,98682.75
2023-04-07T18:59:43.737Z,98690.91
2023-04-07T19:02:47.496Z,98693.63
2023-04-07T19:05:52.505Z,98702.09
2023-04-07T19:08:56.854Z,98701.56
2023-04-07T19:11:59.426Z,98703.47
2023-04-07T19:15:01.903Z,98705.81
2023-04-07T19:18:04.831Z,98711.78
2023-04-07T19:21:07.972Z,98715.25
2023-04-07T19:24:11.828Z,98719.31
2023-04-07T19:27:14.707Z,98723.72
2023-04-07T19:30:17.575Z,98719.28
2023-04-07T19:33:20.543Z,98727.47
2023-04-07T19:36:23.116Z,98722.16
2023-04-07T19:39:27.235Z,98724.38
2023-04-07T19:42:29.864Z,98725.22
2023-04-07T19:45:32.574Z,98734.09
2023-04-07T19:48:35.383Z,98738.31
2023-04-07T19:51:38.035Z,98736.47
2023-04-07T19:54:42.204Z,98746.63
2023-04-07T19:57:44.700Z,98739.06
2023-04-07T20:00:49.685Z,98742.75
2023-04-07T20:03:52.446Z,98742.75
2023-04-07T20:06:55.278Z,98749.34
2023-04-07T20:09:59.924Z,98752.72
2023-04-07T20:13:03.370Z,98750.13
2023-04-07T20:16:06.807Z,98751.72
2023-04-07T20:19:09.518Z,98750.78
2023-04-07T20:22:12.088Z,98757.94
2023-04-07T20:25:16.173Z,98758.38
2023-04-07T20:28:18.667Z,98760.53
2023-04-07T20:31:21.595Z,98759.72
2023-04-07T20:34:24.101Z,98767.41
2023-04-07T20:37:27.862Z,98767.41
2023-04-07T20:40:35.181Z,98771.25
2023-04-07T20:43:37.803Z,98766.44
2023-04-07T20:46:40.690Z,98772.38
2023-04-07T20:49:43.795Z,98775.22
2023-04-07T20:52:46.446Z,98776.97
2023-04-07T20:55:50.562Z,98775.00
2023-04-07T20:58:53.137Z,98770.44
2023-04-07T21:01:56.450Z,98769.31
2023-04-07T21:04:59.332Z,98777.72
2023-04-07T21:08:02.022Z,98775.66
2023-04-07T21:11:06.147Z,98779.22
2023-04-07T21:14:08.613Z,98782.16
2023-04-07T21:17:11.219Z,98790.59
2023-04-07T21:20:14.014Z,98781.41
2023-04-07T21:23:16.666Z,98784.59
2023-04-07T21:26:20.904Z,98782.97
2023-04-07T21:29:23.417Z,98788.75
2023-04-07T21:32:26.129Z,98786.25
2023-04-07T21:35:29.319Z,98789.09
2023-04-07T21:38:32.081Z,98782.03
2023-04-07T21:41:36.505Z,98796.63
2023-04-07T21:44:39.152Z,98788.44
2023-04-07T21:47:41.769Z,98795.78
2023-04-07T21:50:44.340Z,98790.81
2023-04-07T21:53:46.858Z,98794.97
2023-04-07T21:56:51.549Z,98797.53
2023-04-07T21:59:54.074Z,98787.50
2023-04-07T22:02:56.867Z,98788.63
2023-04-07T22:05:59.903Z,98788.66
2023-04-07T22:09:02.666Z,98791.84
2023-04-07T22:12:06.590Z,98796.41
2023-04-07T22:15:10.924Z,98791.72
2023-04-07T22:18:13.676Z,98796.28
2023-04-07T22:21:16.577Z,98800.63
2023-04-07T22:24:19.170Z,98802.47
2023-04-07T22:27:23.091Z,98799.81
2023-04-07T22:30:26.133Z,98804.34
2023-04-07T22:33:29.095Z,98804.53
2023-04-07T22:36:33.501Z,98807.63
2023-04-07T22:39:36.103Z,98802.72
2023-04-07T22:42:40.566Z,98810.09
2023-04-07T22:45:43.101Z,98801.03
2023-04-07T22:48:45.585Z,98803.56
2023-04-07T22:51:48.634Z,98808.56
2023-04-07T22:54:51.293Z,98808.00
2023-04-07T22:57:55.304Z,98813.06
2023-04-07T23:00:57.916Z,98804.28
2023-04-07T23:04:00.840Z,98807.88
2023-04-07T23:07:03.402Z,98807.88
2023-04-07T23:10:07.962Z,98809.50
2023-04-07T23:13:13.324Z,98812.34
2023-04-07T23:16:16.544Z,98813.75
2023-04-07T23:19:19.170Z,98804.34
2023-04-07T23:22:22.061Z,98813.91
2023-04-07T23:25:24.780Z,98817.16
2023-04-07T23:28:28.897Z,98823.69
2023-04-07T23:31:32.116Z,98829.31
2023-04-07T23:34:34.760Z,98828.69
2023-04-07T23:37:37.308Z,98826.09
2023-04-07T23:40:39.811Z,98833.16
2023-04-07T23:43:43.759Z,98832.66
2023-04-07T23:46:46.265Z,98832.97
2023-04-07T23:49:48.922Z,98826.47
2023-04-07T23:52:51.461Z,98837.13
2023-04-07T23:55:54.131Z,98837.38
2023-04-07T23:58:58.011Z,98839.09
